Terminal Aerodrome Forecast
Issued by NWS

Current Version | Previous Version | Text Only | Print | Product List | Glossary On
Versions: 1 2 3 4 5 6 7 8 9 10 11 12 13 14 15 16 17 18 19 20 21 22 23
813
FTUS43 KDTX 091400 AAA
TAFMBS
TAF AMD
KMBS 091400Z 0914/1012 31013KT 3/4SM -SN BR SCT007 BKN010 OVC017
     FM091500 31013G20KT 1SM -SN BKN015 OVC025
     FM091900 31013G20KT 3SM -SHSN OVC015
     FM100200 30013KT P6SM BKN035
     FM101000 30010KT 6SM -SHSN OVC025=

USA.gov is the U.S. government's official web portal to all federal, state and local government web resources and services.